sensor_id;sensor_type;location;lat;lon;timestamp;temperature;humidity
7658;DHT22;8462;53.156;8.220;2024-03-08T00:01:05;4.30;99.90
7658;DHT22;8462;53.156;8.220;2024-03-08T00:03:32;4.40;99.90
7658;DHT22;8462;53.156;8.220;2024-03-08T00:06:03;4.30;99.90
7658;DHT22;8462;53.156;8.220;2024-03-08T00:08:37;4.30;99.90
7658;DHT22;8462;53.156;8.220;2024-03-08T00:11:05;4.30;99.90
7658;DHT22;8462;53.156;8.220;2024-03-08T00:13:35;4.30;99.90
7658;DHT22;8462;53.156;8.220;2024-03-08T00:16:04;4.30;99.90
7658;DHT22;8462;53.156;8.220;2024-03-08T00:18:32;4.20;99.90
7658;DHT22;8462;53.156;8.220;2024-03-08T00:20:59;4.20;99.90
7658;DHT22;8462;53.156;8.220;2024-03-08T00:23:28;4.20;99.90
7658;DHT22;8462;53.156;8.220;2024-03-08T00:25:57;4.10;99.90
7658;DHT22;8462;53.156;8.220;2024-03-08T00:28:27;4.10;99.90
7658;DHT22;8462;53.156;8.220;2024-03-08T00:30:54;4.10;99.90
7658;DHT22;8462;53.156;8.220;2024-03-08T00:33:25;4.10;99.90
7658;DHT22;8462;53.156;8.220;2024-03-08T00:35:54;4.10;99.90
7658;DHT22;8462;53.156;8.220;2024-03-08T00:38:21;4.00;99.90
7658;DHT22;8462;53.156;8.220;2024-03-08T00:40:51;4.00;99.90
7658;DHT22;8462;53.156;8.220;2024-03-08T00:43:20;4.00;99.90
7658;DHT22;8462;53.156;8.220;2024-03-08T00:45:47;3.90;99.90
7658;DHT22;8462;53.156;8.220;2024-03-08T00:48:17;3.90;99.90
7658;DHT22;8462;53.156;8.220;2024-03-08T00:50:45;3.90;99.90
7658;DHT22;8462;53.156;8.220;2024-03-08T00:53:16;3.80;99.90
7658;DHT22;8462;53.156;8.220;2024-03-08T00:55:51;3.80;99.90
7658;DHT22;8462;53.156;8.220;2024-03-08T00:58:19;3.80;99.90
7658;DHT22;8462;53.156;8.220;2024-03-08T01:00:48;3.80;99.90
7658;DHT22;8462;53.156;8.220;2024-03-08T01:03:15;3.70;99.90
7658;DHT22;8462;53.156;8.220;2024-03-08T01:05:44;3.70;99.90
7658;DHT22;8462;53.156;8.220;2024-03-08T01:08:17;3.70;99.90
7658;DHT22;8462;53.156;8.220;2024-03-08T01:10:45;3.60;99.90
7658;DHT22;8462;53.156;8.220;2024-03-08T01:13:15;3.60;99.90
7658;DHT22;8462;53.156;8.220;2024-03-08T01:15:45;3.70;99.90
7658;DHT22;8462;53.156;8.220;2024-03-08T01:18:15;3.60;99.90
7658;DHT22;8462;53.156;8.220;2024-03-08T01:20:43;3.60;99.90
7658;DHT22;8462;53.156;8.220;2024-03-08T01:23:10;3.60;99.90
7658;DHT22;8462;53.156;8.220;2024-03-08T01:25:38;3.70;99.90
7658;DHT22;8462;53.156;8.220;2024-03-08T01:28:06;3.70;99.90
7658;DHT22;8462;53.156;8.220;2024-03-08T01:30:36;3.70;99.90
7658;DHT22;8462;53.156;8.220;2024-03-08T01:33:07;3.70;99.90
7658;DHT22;8462;53.156;8.220;2024-03-08T01:35:35;3.70;99.90
7658;DHT22;8462;53.156;8.220;2024-03-08T01:38:03;3.70;99.90
7658;DHT22;8462;53.156;8.220;2024-03-08T01:40:32;3.70;99.90
7658;DHT22;8462;53.156;8.220;2024-03-08T01:43:17;3.70;99.90
7658;DHT22;8462;53.156;8.220;2024-03-08T01:45:53;3.70;99.90
7658;DHT22;8462;53.156;8.220;2024-03-08T01:48:23;3.70;99.90
7658;DHT22;8462;53.156;8.220;2024-03-08T01:50:53;3.60;99.90
7658;DHT22;8462;53.156;8.220;2024-03-08T01:53:24;3.60;99.90
7658;DHT22;8462;53.156;8.220;2024-03-08T01:55:56;3.60;99.90
7658;DHT22;8462;53.156;8.220;2024-03-08T01:58:28;3.50;99.90
7658;DHT22;8462;53.156;8.220;2024-03-08T02:00:58;3.50;99.90
7658;DHT22;8462;53.156;8.220;2024-03-08T02:03:26;3.50;99.90
7658;DHT22;8462;53.156;8.220;2024-03-08T02:05:53;3.50;99.90
7658;DHT22;8462;53.156;8.220;2024-03-08T02:08:23;3.50;99.90
7658;DHT22;8462;53.156;8.220;2024-03-08T02:10:52;3.50;99.90
7658;DHT22;8462;53.156;8.220;2024-03-08T02:13:20;3.50;99.90
7658;DHT22;8462;53.156;8.220;2024-03-08T02:15:51;3.40;99.90
7658;DHT22;8462;53.156;8.220;2024-03-08T02:18:21;3.40;99.90
7658;DHT22;8462;53.156;8.220;2024-03-08T02:20:51;3.40;99.90
7658;DHT22;8462;53.156;8.220;2024-03-08T02:23:18;3.40;99.90
7658;DHT22;8462;53.156;8.220;2024-03-08T02:25:48;3.40;99.90
7658;DHT22;8462;53.156;8.220;2024-03-08T02:28:19;3.40;99.90
7658;DHT22;8462;53.156;8.220;2024-03-08T02:30:47;3.40;99.90
7658;DHT22;8462;53.156;8.220;2024-03-08T02:33:15;3.40;99.90
7658;DHT22;8462;53.156;8.220;2024-03-08T02:35:44;3.40;99.90
7658;DHT22;8462;53.156;8.220;2024-03-08T02:38:19;3.40;99.90
7658;DHT22;8462;53.156;8.220;2024-03-08T02:40:48;3.30;99.90
7658;DHT22;8462;53.156;8.220;2024-03-08T02:43:18;3.30;99.90
7658;DHT22;8462;53.156;8.220;2024-03-08T02:45:46;3.30;99.90
7658;DHT22;8462;53.156;8.220;2024-03-08T02:48:15;3.30;99.90
7658;DHT22;8462;53.156;8.220;2024-03-08T02:50:44;3.30;99.90
7658;DHT22;8462;53.156;8.220;2024-03-08T02:53:14;3.30;99.90
7658;DHT22;8462;53.156;8.220;2024-03-08T02:55:44;3.30;99.90
7658;DHT22;8462;53.156;8.220;2024-03-08T02:58:12;3.20;99.90
7658;DHT22;8462;53.156;8.220;2024-03-08T03:00:42;3.20;99.90
7658;DHT22;8462;53.156;8.220;2024-03-08T03:03:10;3.20;99.90
7658;DHT22;8462;53.156;8.220;2024-03-08T03:05:39;3.20;99.90
7658;DHT22;8462;53.156;8.220;2024-03-08T03:08:08;3.20;99.90
7658;DHT22;8462;53.156;8.220;2024-03-08T03:10:36;3.20;99.90
7658;DHT22;8462;53.156;8.220;2024-03-08T03:13:07;3.10;99.90
7658;DHT22;8462;53.156;8.220;2024-03-08T03:15:34;3.10;99.90
7658;DHT22;8462;53.156;8.220;2024-03-08T03:18:03;3.10;99.90
7658;DHT22;8462;53.156;8.220;2024-03-08T03:20:35;3.10;99.90
7658;DHT22;8462;53.156;8.220;2024-03-08T03:23:06;3.10;99.90
7658;DHT22;8462;53.156;8.220;2024-03-08T03:25:37;3.10;99.90
7658;DHT22;8462;53.156;8.220;2024-03-08T03:28:08;3.10;99.90
7658;DHT22;8462;53.156;8.220;2024-03-08T03:30:42;3.10;99.90
7658;DHT22;8462;53.156;8.220;2024-03-08T03:33:09;3.00;99.90
7658;DHT22;8462;53.156;8.220;2024-03-08T03:35:39;3.00;99.90
7658;DHT22;8462;53.156;8.220;2024-03-08T03:38:08;3.00;99.90
7658;DHT22;8462;53.156;8.220;2024-03-08T03:40:38;3.00;99.90
7658;DHT22;8462;53.156;8.220;2024-03-08T03:43:07;3.00;99.90
7658;DHT22;8462;53.156;8.220;2024-03-08T03:45:39;3.00;99.90
7658;DHT22;8462;53.156;8.220;2024-03-08T03:48:08;3.00;99.90
7658;DHT22;8462;53.156;8.220;2024-03-08T03:50:36;3.00;99.90
7658;DHT22;8462;53.156;8.220;2024-03-08T03:53:08;3.00;99.90
7658;DHT22;8462;53.156;8.220;2024-03-08T03:55:37;2.90;99.90
7658;DHT22;8462;53.156;8.220;2024-03-08T03:58:04;2.90;99.90
7658;DHT22;8462;53.156;8.220;2024-03-08T04:00:33;2.90;99.90
7658;DHT22;8462;53.156;8.220;2024-03-08T04:03:01;2.90;99.90
7658;DHT22;8462;53.156;8.220;2024-03-08T04:05:31;2.90;99.90
7658;DHT22;8462;53.156;8.220;2024-03-08T04:07:59;2.80;99.90
7658;DHT22;8462;53.156;8.220;2024-03-08T04:10:27;2.80;99.90
7658;DHT22;8462;53.156;8.220;2024-03-08T04:12:56;2.80;99.90
7658;DHT22;8462;53.156;8.220;2024-03-08T04:15:24;2.80;99.90
7658;DHT22;8462;53.156;8.220;2024-03-08T04:17:54;2.80;99.90
7658;DHT22;8462;53.156;8.220;2024-03-08T04:20:23;2.80;99.90
7658;DHT22;8462;53.156;8.220;2024-03-08T04:22:52;2.80;99.90
7658;DHT22;8462;53.156;8.220;2024-03-08T04:25:19;2.80;99.90
7658;DHT22;8462;53.156;8.220;2024-03-08T04:27:47;2.80;99.90
7658;DHT22;8462;53.156;8.220;2024-03-08T04:30:16;2.80;99.90
7658;DHT22;8462;53.156;8.220;2024-03-08T04:32:47;2.80;99.90
7658;DHT22;8462;53.156;8.220;2024-03-08T04:35:17;2.80;99.90
7658;DHT22;8462;53.156;8.220;2024-03-08T04:37:47;2.70;99.90
7658;DHT22;8462;53.156;8.220;2024-03-08T04:40:15;2.70;99.90
7658;DHT22;8462;53.156;8.220;2024-03-08T04:42:43;2.70;99.90
7658;DHT22;8462;53.156;8.220;2024-03-08T04:45:11;2.70;99.90
7658;DHT22;8462;53.156;8.220;2024-03-08T04:47:40;2.60;99.90
7658;DHT22;8462;53.156;8.220;2024-03-08T04:50:09;2.60;99.90
7658;DHT22;8462;53.156;8.220;2024-03-08T04:52:38;2.70;99.90
7658;DHT22;8462;53.156;8.220;2024-03-08T04:55:06;2.70;99.90
7658;DHT22;8462;53.156;8.220;2024-03-08T04:57:34;2.70;99.90
7658;DHT22;8462;53.156;8.220;2024-03-08T05:00:03;2.60;99.90
7658;DHT22;8462;53.156;8.220;2024-03-08T05:02:38;2.70;99.90
7658;DHT22;8462;53.156;8.220;2024-03-08T05:05:06;2.60;99.90
7658;DHT22;8462;53.156;8.220;2024-03-08T05:07:36;2.60;99.90
7658;DHT22;8462;53.156;8.220;2024-03-08T05:10:08;2.60;99.90
7658;DHT22;8462;53.156;8.220;2024-03-08T05:12:37;2.60;99.90
7658;DHT22;8462;53.156;8.220;2024-03-08T05:15:07;2.60;99.90
7658;DHT22;8462;53.156;8.220;2024-03-08T05:17:35;2.60;99.90
7658;DHT22;8462;53.156;8.220;2024-03-08T05:20:03;2.60;99.90
7658;DHT22;8462;53.156;8.220;2024-03-08T05:22:34;2.60;99.90
7658;DHT22;8462;53.156;8.220;2024-03-08T05:25:02;2.60;99.90
7658;DHT22;8462;53.156;8.220;2024-03-08T05:27:32;2.60;99.90
7658;DHT22;8462;53.156;8.220;2024-03-08T05:30:03;2.60;99.90
7658;DHT22;8462;53.156;8.220;2024-03-08T05:32:30;2.60;99.90
7658;DHT22;8462;53.156;8.220;2024-03-08T05:35:00;2.60;99.90
7658;DHT22;8462;53.156;8.220;2024-03-08T05:37:30;2.50;99.90
7658;DHT22;8462;53.156;8.220;2024-03-08T05:39:58;2.50;99.90
7658;DHT22;8462;53.156;8.220;2024-03-08T05:42:26;2.50;99.90
7658;DHT22;8462;53.156;8.220;2024-03-08T05:44:55;2.50;99.90
7658;DHT22;8462;53.156;8.220;2024-03-08T05:47:24;2.50;99.90
7658;DHT22;8462;53.156;8.220;2024-03-08T05:49:52;2.50;99.90
7658;DHT22;8462;53.156;8.220;2024-03-08T05:52:21;2.50;99.90
7658;DHT22;8462;53.156;8.220;2024-03-08T05:54:48;2.50;99.90
7658;DHT22;8462;53.156;8.220;2024-03-08T05:57:16;2.50;99.90
7658;DHT22;8462;53.156;8.220;2024-03-08T05:59:44;2.40;99.90
7658;DHT22;8462;53.156;8.220;2024-03-08T06:02:15;2.50;99.90
7658;DHT22;8462;53.156;8.220;2024-03-08T06:04:46;2.50;99.90
7658;DHT22;8462;53.156;8.220;2024-03-08T06:07:13;2.50;99.90
7658;DHT22;8462;53.156;8.220;2024-03-08T06:09:45;2.50;99.90
7658;DHT22;8462;53.156;8.220;2024-03-08T06:12:15;2.50;99.90
7658;DHT22;8462;53.156;8.220;2024-03-08T06:14:45;2.50;99.90
7658;DHT22;8462;53.156;8.220;2024-03-08T06:17:15;2.60;99.90
7658;DHT22;8462;53.156;8.220;2024-03-08T06:19:44;2.70;99.90
7658;DHT22;8462;53.156;8.220;2024-03-08T06:22:15;2.80;99.90
7658;DHT22;8462;53.156;8.220;2024-03-08T06:24:42;3.00;99.90
7658;DHT22;8462;53.156;8.220;2024-03-08T06:27:11;3.20;99.90
7658;DHT22;8462;53.156;8.220;2024-03-08T06:29:40;3.40;99.90
7658;DHT22;8462;53.156;8.220;2024-03-08T06:32:08;3.50;99.90
7658;DHT22;8462;53.156;8.220;2024-03-08T06:34:37;3.70;99.90
7658;DHT22;8462;53.156;8.220;2024-03-08T06:37:06;4.00;99.90
7658;DHT22;8462;53.156;8.220;2024-03-08T06:40:00;4.20;99.90
7658;DHT22;8462;53.156;8.220;2024-03-08T06:42:30;4.40;99.90
7658;DHT22;8462;53.156;8.220;2024-03-08T06:45:01;4.50;99.90
7658;DHT22;8462;53.156;8.220;2024-03-08T06:47:31;4.60;99.90
7658;DHT22;8462;53.156;8.220;2024-03-08T06:50:02;4.70;99.90
7658;DHT22;8462;53.156;8.220;2024-03-08T06:52:32;4.70;99.90
7658;DHT22;8462;53.156;8.220;2024-03-08T06:55:01;4.80;99.90
7658;DHT22;8462;53.156;8.220;2024-03-08T06:57:32;4.80;99.90
7658;DHT22;8462;53.156;8.220;2024-03-08T07:00:01;4.90;99.90
7658;DHT22;8462;53.156;8.220;2024-03-08T07:02:28;4.90;99.90
7658;DHT22;8462;53.156;8.220;2024-03-08T07:04:55;5.00;99.90
7658;DHT22;8462;53.156;8.220;2024-03-08T07:07:26;5.00;99.90
7658;DHT22;8462;53.156;8.220;2024-03-08T07:09:57;5.10;99.90
7658;DHT22;8462;53.156;8.220;2024-03-08T07:12:24;5.30;99.90
7658;DHT22;8462;53.156;8.220;2024-03-08T07:14:54;5.40;99.90
7658;DHT22;8462;53.156;8.220;2024-03-08T07:17:22;5.50;99.90
7658;DHT22;8462;53.156;8.220;2024-03-08T07:19:51;5.70;99.90
7658;DHT22;8462;53.156;8.220;2024-03-08T07:22:21;5.80;99.90
7658;DHT22;8462;53.156;8.220;2024-03-08T07:24:57;6.00;99.90
7658;DHT22;8462;53.156;8.220;2024-03-08T07:27:44;6.20;99.90
7658;DHT22;8462;53.156;8.220;2024-03-08T07:30:17;6.40;99.90
7658;DHT22;8462;53.156;8.220;2024-03-08T07:33:00;6.30;99.90
7658;DHT22;8462;53.156;8.220;2024-03-08T07:35:30;6.10;99.90
7658;DHT22;8462;53.156;8.220;2024-03-08T07:37:58;5.80;99.90
7658;DHT22;8462;53.156;8.220;2024-03-08T07:40:31;5.60;99.90
7658;DHT22;8462;53.156;8.220;2024-03-08T07:43:01;5.50;99.90
7658;DHT22;8462;53.156;8.220;2024-03-08T07:45:31;5.30;99.90
7658;DHT22;8462;53.156;8.220;2024-03-08T07:47:59;5.10;99.90
7658;DHT22;8462;53.156;8.220;2024-03-08T07:50:30;5.10;99.90
7658;DHT22;8462;53.156;8.220;2024-03-08T07:53:06;5.10;99.90
7658;DHT22;8462;53.156;8.220;2024-03-08T07:55:36;5.00;99.90
7658;DHT22;8462;53.156;8.220;2024-03-08T07:58:03;5.10;99.90
7658;DHT22;8462;53.156;8.220;2024-03-08T08:00:32;5.10;99.90
7658;DHT22;8462;53.156;8.220;2024-03-08T08:02:59;5.20;99.90
7658;DHT22;8462;53.156;8.220;2024-03-08T08:05:28;5.20;99.90
7658;DHT22;8462;53.156;8.220;2024-03-08T08:07:56;5.30;99.90
7658;DHT22;8462;53.156;8.220;2024-03-08T08:10:26;5.40;99.90
7658;DHT22;8462;53.156;8.220;2024-03-08T08:12:56;5.50;99.90
7658;DHT22;8462;53.156;8.220;2024-03-08T08:15:28;5.50;99.90
7658;DHT22;8462;53.156;8.220;2024-03-08T08:17:56;5.50;99.90
7658;DHT22;8462;53.156;8.220;2024-03-08T08:20:27;5.50;99.90
7658;DHT22;8462;53.156;8.220;2024-03-08T08:22:55;5.60;99.90
7658;DHT22;8462;53.156;8.220;2024-03-08T08:25:26;5.70;99.90
7658;DHT22;8462;53.156;8.220;2024-03-08T08:27:55;5.90;99.90
7658;DHT22;8462;53.156;8.220;2024-03-08T08:30:24;5.90;99.90
7658;DHT22;8462;53.156;8.220;2024-03-08T08:32:51;6.10;99.90
7658;DHT22;8462;53.156;8.220;2024-03-08T08:35:20;6.20;99.90
7658;DHT22;8462;53.156;8.220;2024-03-08T08:37:50;6.20;99.90
7658;DHT22;8462;53.156;8.220;2024-03-08T08:40:18;6.30;99.90
7658;DHT22;8462;53.156;8.220;2024-03-08T08:42:46;6.40;99.90
7658;DHT22;8462;53.156;8.220;2024-03-08T08:45:16;6.50;99.90
7658;DHT22;8462;53.156;8.220;2024-03-08T08:47:46;6.60;99.90
7658;DHT22;8462;53.156;8.220;2024-03-08T08:50:17;6.80;99.90
7658;DHT22;8462;53.156;8.220;2024-03-08T08:52:49;7.00;99.90
7658;DHT22;8462;53.156;8.220;2024-03-08T08:55:16;7.10;99.90
7658;DHT22;8462;53.156;8.220;2024-03-08T08:57:49;7.30;99.90
7658;DHT22;8462;53.156;8.220;2024-03-08T09:00:20;7.50;99.90
7658;DHT22;8462;53.156;8.220;2024-03-08T09:02:49;7.70;99.90
7658;DHT22;8462;53.156;8.220;2024-03-08T09:05:18;7.70;99.90
7658;DHT22;8462;53.156;8.220;2024-03-08T09:07:47;7.70;99.90
7658;DHT22;8462;53.156;8.220;2024-03-08T09:10:16;7.90;99.90
7658;DHT22;8462;53.156;8.220;2024-03-08T09:12:45;8.00;99.90
7658;DHT22;8462;53.156;8.220;2024-03-08T09:15:15;8.10;99.90
7658;DHT22;8462;53.156;8.220;2024-03-08T09:17:44;8.10;99.90
7658;DHT22;8462;53.156;8.220;2024-03-08T09:20:14;8.10;99.90
7658;DHT22;8462;53.156;8.220;2024-03-08T09:22:50;8.20;99.90
7658;DHT22;8462;53.156;8.220;2024-03-08T09:25:18;8.40;99.90
7658;DHT22;8462;53.156;8.220;2024-03-08T09:27:46;8.50;99.90
7658;DHT22;8462;53.156;8.220;2024-03-08T09:30:16;8.50;99.90
7658;DHT22;8462;53.156;8.220;2024-03-08T09:32:43;8.40;99.90
7658;DHT22;8462;53.156;8.220;2024-03-08T09:35:11;8.30;99.90
7658;DHT22;8462;53.156;8.220;2024-03-08T09:37:42;8.30;99.90
7658;DHT22;8462;53.156;8.220;2024-03-08T09:40:09;8.20;99.90
7658;DHT22;8462;53.156;8.220;2024-03-08T09:42:42;8.20;99.90
7658;DHT22;8462;53.156;8.220;2024-03-08T09:45:12;8.40;99.90
7658;DHT22;8462;53.156;8.220;2024-03-08T09:47:42;8.60;99.90
7658;DHT22;8462;53.156;8.220;2024-03-08T09:50:11;8.60;99.90
7658;DHT22;8462;53.156;8.220;2024-03-08T09:52:39;8.50;99.90
7658;DHT22;8462;53.156;8.220;2024-03-08T09:55:10;8.50;99.90
7658;DHT22;8462;53.156;8.220;2024-03-08T09:57:47;8.60;99.90
7658;DHT22;8462;53.156;8.220;2024-03-08T10:00:35;8.70;99.90
7658;DHT22;8462;53.156;8.220;2024-03-08T10:03:04;8.70;99.90
7658;DHT22;8462;53.156;8.220;2024-03-08T10:05:31;8.70;99.90
7658;DHT22;8462;53.156;8.220;2024-03-08T10:08:01;8.70;99.90
7658;DHT22;8462;53.156;8.220;2024-03-08T10:10:36;8.70;99.90
7658;DHT22;8462;53.156;8.220;2024-03-08T10:13:06;8.70;99.90
7658;DHT22;8462;53.156;8.220;2024-03-08T10:15:34;8.90;99.90
7658;DHT22;8462;53.156;8.220;2024-03-08T10:18:01;8.90;99.90
7658;DHT22;8462;53.156;8.220;2024-03-08T10:20:31;9.00;99.90
7658;DHT22;8462;53.156;8.220;2024-03-08T10:23:03;9.10;99.90
7658;DHT22;8462;53.156;8.220;2024-03-08T10:25:32;9.00;99.90
7658;DHT22;8462;53.156;8.220;2024-03-08T10:28:04;9.20;99.90
7658;DHT22;8462;53.156;8.220;2024-03-08T10:30:33;9.20;99.90
7658;DHT22;8462;53.156;8.220;2024-03-08T10:33:01;9.30;99.90
7658;DHT22;8462;53.156;8.220;2024-03-08T10:35:32;9.20;99.90
7658;DHT22;8462;53.156;8.220;2024-03-08T10:38:01;9.20;99.90
7658;DHT22;8462;53.156;8.220;2024-03-08T10:40:35;9.20;99.90
7658;DHT22;8462;53.156;8.220;2024-03-08T10:43:14;9.40;99.90
7658;DHT22;8462;53.156;8.220;2024-03-08T10:45:47;9.50;99.90
7658;DHT22;8462;53.156;8.220;2024-03-08T10:48:28;9.60;99.90
7658;DHT22;8462;53.156;8.220;2024-03-08T10:50:59;9.50;99.90
7658;DHT22;8462;53.156;8.220;2024-03-08T10:53:27;9.60;99.90
7658;DHT22;8462;53.156;8.220;2024-03-08T10:55:56;9.60;99.90
7658;DHT22;8462;53.156;8.220;2024-03-08T10:58:29;9.60;99.90
7658;DHT22;8462;53.156;8.220;2024-03-08T11:00:58;9.60;99.90
7658;DHT22;8462;53.156;8.220;2024-03-08T11:03:47;9.60;99.90
7658;DHT22;8462;53.156;8.220;2024-03-08T11:06:23;9.70;99.90
7658;DHT22;8462;53.156;8.220;2024-03-08T11:08:56;9.90;99.90
7658;DHT22;8462;53.156;8.220;2024-03-08T11:11:26;10.00;99.90
7658;DHT22;8462;53.156;8.220;2024-03-08T11:13:59;9.90;99.90
7658;DHT22;8462;53.156;8.220;2024-03-08T11:16:40;9.90;99.90
7658;DHT22;8462;53.156;8.220;2024-03-08T11:19:26;9.80;99.90
7658;DHT22;8462;53.156;8.220;2024-03-08T11:22:02;9.80;99.90
7658;DHT22;8462;53.156;8.220;2024-03-08T11:24:38;9.80;99.90
7658;DHT22;8462;53.156;8.220;2024-03-08T11:27:08;9.80;99.90
7658;DHT22;8462;53.156;8.220;2024-03-08T11:29:41;9.70;99.90
7658;DHT22;8462;53.156;8.220;2024-03-08T11:32:11;9.70;99.90
7658;DHT22;8462;53.156;8.220;2024-03-08T11:34:41;9.70;99.90
7658;DHT22;8462;53.156;8.220;2024-03-08T11:37:12;9.80;99.90
7658;DHT22;8462;53.156;8.220;2024-03-08T11:39:46;9.90;99.90
7658;DHT22;8462;53.156;8.220;2024-03-08T11:42:17;10.00;99.90
7658;DHT22;8462;53.156;8.220;2024-03-08T11:44:46;10.10;99.90
7658;DHT22;8462;53.156;8.220;2024-03-08T11:47:15;10.10;99.90
7658;DHT22;8462;53.156;8.220;2024-03-08T11:49:48;9.90;99.90
7658;DHT22;8462;53.156;8.220;2024-03-08T11:52:17;9.80;99.90
7658;DHT22;8462;53.156;8.220;2024-03-08T11:54:53;9.80;99.90
7658;DHT22;8462;53.156;8.220;2024-03-08T11:57:24;9.90;99.90
7658;DHT22;8462;53.156;8.220;2024-03-08T11:59:53;9.90;99.90
7658;DHT22;8462;53.156;8.220;2024-03-08T12:02:23;9.90;99.90
7658;DHT22;8462;53.156;8.220;2024-03-08T12:04:56;10.00;99.90
7658;DHT22;8462;53.156;8.220;2024-03-08T12:07:30;10.10;99.90
7658;DHT22;8462;53.156;8.220;2024-03-08T12:10:15;10.20;99.90
7658;DHT22;8462;53.156;8.220;2024-03-08T12:12:45;10.10;99.90
7658;DHT22;8462;53.156;8.220;2024-03-08T12:15:16;10.20;99.90
7658;DHT22;8462;53.156;8.220;2024-03-08T12:17:49;10.30;99.90
7658;DHT22;8462;53.156;8.220;2024-03-08T12:20:20;10.20;99.90
7658;DHT22;8462;53.156;8.220;2024-03-08T12:22:51;10.10;99.90
7658;DHT22;8462;53.156;8.220;2024-03-08T12:25:20;10.10;99.90
7658;DHT22;8462;53.156;8.220;2024-03-08T12:27:50;10.00;99.90
7658;DHT22;8462;53.156;8.220;2024-03-08T12:30:21;10.00;99.90
7658;DHT22;8462;53.156;8.220;2024-03-08T12:32:54;10.10;99.90
7658;DHT22;8462;53.156;8.220;2024-03-08T12:35:25;10.10;99.90
7658;DHT22;8462;53.156;8.220;2024-03-08T12:37:58;10.10;99.90
7658;DHT22;8462;53.156;8.220;2024-03-08T12:40:27;10.10;99.90
7658;DHT22;8462;53.156;8.220;2024-03-08T12:42:58;10.20;99.90
7658;DHT22;8462;53.156;8.220;2024-03-08T12:45:30;10.30;99.90
7658;DHT22;8462;53.156;8.220;2024-03-08T12:48:00;10.30;99.90
7658;DHT22;8462;53.156;8.220;2024-03-08T12:50:29;10.30;99.90
7658;DHT22;8462;53.156;8.220;2024-03-08T12:52:58;10.20;99.90
7658;DHT22;8462;53.156;8.220;2024-03-08T12:55:26;10.10;99.90
7658;DHT22;8462;53.156;8.220;2024-03-08T12:57:54;10.20;99.90
7658;DHT22;8462;53.156;8.220;2024-03-08T13:00:21;10.20;99.90
7658;DHT22;8462;53.156;8.220;2024-03-08T13:02:55;10.30;99.90
7658;DHT22;8462;53.156;8.220;2024-03-08T13:05:22;10.20;99.90
7658;DHT22;8462;53.156;8.220;2024-03-08T13:07:49;10.20;99.90
7658;DHT22;8462;53.156;8.220;2024-03-08T13:10:18;10.20;99.90
7658;DHT22;8462;53.156;8.220;2024-03-08T13:12:49;10.10;99.90
7658;DHT22;8462;53.156;8.220;2024-03-08T13:15:21;10.10;99.90
7658;DHT22;8462;53.156;8.220;2024-03-08T13:17:50;10.20;99.90
7658;DHT22;8462;53.156;8.220;2024-03-08T13:20:20;10.20;99.90
7658;DHT22;8462;53.156;8.220;2024-03-08T13:22:53;10.40;99.90
7658;DHT22;8462;53.156;8.220;2024-03-08T13:25:22;10.40;99.90
7658;DHT22;8462;53.156;8.220;2024-03-08T13:27:50;10.60;99.90
7658;DHT22;8462;53.156;8.220;2024-03-08T13:30:18;10.60;99.90
7658;DHT22;8462;53.156;8.220;2024-03-08T13:32:52;10.50;99.90
7658;DHT22;8462;53.156;8.220;2024-03-08T13:35:22;10.50;99.90
7658;DHT22;8462;53.156;8.220;2024-03-08T13:37:53;10.50;99.90
7658;DHT22;8462;53.156;8.220;2024-03-08T13:40:23;10.40;99.90
7658;DHT22;8462;53.156;8.220;2024-03-08T13:42:53;10.40;99.90
7658;DHT22;8462;53.156;8.220;2024-03-08T13:45:25;10.50;99.90
7658;DHT22;8462;53.156;8.220;2024-03-08T13:47:59;10.60;99.90
7658;DHT22;8462;53.156;8.220;2024-03-08T13:50:29;10.60;99.90
7658;DHT22;8462;53.156;8.220;2024-03-08T13:52:57;10.60;99.90
7658;DHT22;8462;53.156;8.220;2024-03-08T13:55:26;10.70;99.90
7658;DHT22;8462;53.156;8.220;2024-03-08T13:57:55;10.80;99.90
7658;DHT22;8462;53.156;8.220;2024-03-08T14:00:24;10.80;99.90
7658;DHT22;8462;53.156;8.220;2024-03-08T14:02:55;10.80;99.90
7658;DHT22;8462;53.156;8.220;2024-03-08T14:05:22;10.70;99.90
7658;DHT22;8462;53.156;8.220;2024-03-08T14:07:52;10.70;99.90
7658;DHT22;8462;53.156;8.220;2024-03-08T14:10:22;10.80;99.90
7658;DHT22;8462;53.156;8.220;2024-03-08T14:12:50;10.80;99.90
7658;DHT22;8462;53.156;8.220;2024-03-08T14:15:17;10.80;99.90
7658;DHT22;8462;53.156;8.220;2024-03-08T14:17:44;10.80;99.90
7658;DHT22;8462;53.156;8.220;2024-03-08T14:20:12;10.80;99.90
7658;DHT22;8462;53.156;8.220;2024-03-08T14:22:41;10.80;99.90
7658;DHT22;8462;53.156;8.220;2024-03-08T14:25:11;10.80;99.90
7658;DHT22;8462;53.156;8.220;2024-03-08T14:27:49;10.80;99.90
7658;DHT22;8462;53.156;8.220;2024-03-08T14:30:18;10.80;99.90
7658;DHT22;8462;53.156;8.220;2024-03-08T14:33:00;10.70;99.90
7658;DHT22;8462;53.156;8.220;2024-03-08T14:35:30;10.80;99.90
7658;DHT22;8462;53.156;8.220;2024-03-08T14:37:57;10.80;99.90
7658;DHT22;8462;53.156;8.220;2024-03-08T14:40:29;10.80;99.90
7658;DHT22;8462;53.156;8.220;2024-03-08T14:43:05;10.80;99.90
7658;DHT22;8462;53.156;8.220;2024-03-08T14:45:37;10.80;99.90
7658;DHT22;8462;53.156;8.220;2024-03-08T14:48:06;10.80;99.90
7658;DHT22;8462;53.156;8.220;2024-03-08T14:50:34;10.70;99.90
7658;DHT22;8462;53.156;8.220;2024-03-08T14:53:03;10.80;99.90
7658;DHT22;8462;53.156;8.220;2024-03-08T14:55:45;10.80;99.90
7658;DHT22;8462;53.156;8.220;2024-03-08T14:58:13;10.80;99.90
7658;DHT22;8462;53.156;8.220;2024-03-08T15:00:42;10.80;99.90
7658;DHT22;8462;53.156;8.220;2024-03-08T15:03:10;10.90;99.90
7658;DHT22;8462;53.156;8.220;2024-03-08T15:05:40;10.90;99.90
7658;DHT22;8462;53.156;8.220;2024-03-08T15:08:14;10.90;99.90
7658;DHT22;8462;53.156;8.220;2024-03-08T15:10:46;10.90;99.90
7658;DHT22;8462;53.156;8.220;2024-03-08T15:13:24;10.80;99.90
7658;DHT22;8462;53.156;8.220;2024-03-08T15:15:54;10.80;99.90
7658;DHT22;8462;53.156;8.220;2024-03-08T15:18:23;10.80;99.90
7658;DHT22;8462;53.156;8.220;2024-03-08T15:20:57;10.90;99.90
7658;DHT22;8462;53.156;8.220;2024-03-08T15:23:25;10.90;99.90
7658;DHT22;8462;53.156;8.220;2024-03-08T15:25:54;10.90;99.90
7658;DHT22;8462;53.156;8.220;2024-03-08T15:28:24;10.90;99.90
7658;DHT22;8462;53.156;8.220;2024-03-08T15:31:00;10.80;99.90
7658;DHT22;8462;53.156;8.220;2024-03-08T15:33:33;10.70;99.90
7658;DHT22;8462;53.156;8.220;2024-03-08T15:36:02;10.60;99.90
7658;DHT22;8462;53.156;8.220;2024-03-08T15:38:34;10.60;99.90
7658;DHT22;8462;53.156;8.220;2024-03-08T15:41:04;10.60;99.90
7658;DHT22;8462;53.156;8.220;2024-03-08T15:43:36;10.60;99.90
7658;DHT22;8462;53.156;8.220;2024-03-08T15:46:06;10.60;99.90
7658;DHT22;8462;53.156;8.220;2024-03-08T15:48:44;10.50;99.90
7658;DHT22;8462;53.156;8.220;2024-03-08T15:51:12;10.50;99.90
7658;DHT22;8462;53.156;8.220;2024-03-08T15:53:41;10.50;99.90
7658;DHT22;8462;53.156;8.220;2024-03-08T15:56:11;10.40;99.90
7658;DHT22;8462;53.156;8.220;2024-03-08T15:59:05;10.40;99.90
7658;DHT22;8462;53.156;8.220;2024-03-08T16:01:34;10.30;99.90
7658;DHT22;8462;53.156;8.220;2024-03-08T16:04:02;10.20;99.90
7658;DHT22;8462;53.156;8.220;2024-03-08T16:06:32;10.20;99.90
7658;DHT22;8462;53.156;8.220;2024-03-08T16:09:02;10.20;99.90
7658;DHT22;8462;53.156;8.220;2024-03-08T16:11:32;10.10;99.90
7658;DHT22;8462;53.156;8.220;2024-03-08T16:14:03;10.10;99.90
7658;DHT22;8462;53.156;8.220;2024-03-08T16:16:32;10.00;99.90
7658;DHT22;8462;53.156;8.220;2024-03-08T16:19:02;10.00;99.90
7658;DHT22;8462;53.156;8.220;2024-03-08T16:21:33;9.90;99.90
7658;DHT22;8462;53.156;8.220;2024-03-08T16:24:02;9.80;99.90
7658;DHT22;8462;53.156;8.220;2024-03-08T16:26:32;9.80;99.90
7658;DHT22;8462;53.156;8.220;2024-03-08T16:29:01;9.80;99.90
7658;DHT22;8462;53.156;8.220;2024-03-08T16:31:34;9.70;99.90
7658;DHT22;8462;53.156;8.220;2024-03-08T16:34:09;9.70;99.90